9TS5 weather

Public forecast

Using degrees Fahrenheit for public forecast. Weather courtesy of forecast.io.

Closest aviation weather report (METAR) to Wilford Hall Medical Center Heliport

Closest report is Lackland Air Force Base, 2.4 nm (4.4 km) ESE. Retrieved 2020/08/14 15:56 UTC (36 minutes ago):

KSKF 141556Z AUTO 19006KT 10SM CLR 32/19 A2997 RMK AO2 SLP140 T03230192

Closest aviation forecast (TAF) to Wilford Hall Medical Center Heliport

Forecast is more than 6 hours old.

Closest forecast is Lackland Air Force Base, 2.4 nm (4.4 km) ESE. Retrieved 2020/08/14 10:06 UTC (6 hours ago):

TAF KSKF 141000Z 1410/1516 16008KT 9999 FEW012 QNH2990INS TEMPO 1412/1414 BKN012 BECMG 1413/1414 17010KT 9999 FEW025 QNH2986INS BECMG 1422/1423 16010G15KT 9999 FEW250 QNH2982INS TX39/1422Z TN25/1411Z